sensor_id;sensor_type;location;lat;lon;timestamp;temperature;humidity
71514;DHT22;59335;46.652;21.272;2023-07-29T00:01:18;30.07;39.37
71514;DHT22;59335;46.652;21.272;2023-07-29T00:04:21;30.07;39.44
71514;DHT22;59335;46.652;21.272;2023-07-29T00:07:23;30.06;39.41
71514;DHT22;59335;46.652;21.272;2023-07-29T00:10:26;30.04;39.43
71514;DHT22;59335;46.652;21.272;2023-07-29T00:13:29;30.04;39.44
71514;DHT22;59335;46.652;21.272;2023-07-29T00:16:32;30.04;39.46
71514;DHT22;59335;46.652;21.272;2023-07-29T00:19:34;30.06;39.44
71514;DHT22;59335;46.652;21.272;2023-07-29T00:22:37;30.03;39.44
71514;DHT22;59335;46.652;21.272;2023-07-29T00:25:40;30.03;39.45
71514;DHT22;59335;46.652;21.272;2023-07-29T00:28:42;30.01;39.47
71514;DHT22;59335;46.652;21.272;2023-07-29T00:31:45;30.06;39.44
71514;DHT22;59335;46.652;21.272;2023-07-29T00:34:48;30.04;39.43
71514;DHT22;59335;46.652;21.272;2023-07-29T00:37:51;30.06;39.41
71514;DHT22;59335;46.652;21.272;2023-07-29T00:40:54;30.03;39.48
71514;DHT22;59335;46.652;21.272;2023-07-29T00:43:57;30.04;39.48
71514;DHT22;59335;46.652;21.272;2023-07-29T00:47:00;30.00;39.47
71514;DHT22;59335;46.652;21.272;2023-07-29T00:50:06;30.01;39.47
71514;DHT22;59335;46.652;21.272;2023-07-29T00:53:09;30.00;39.50
71514;DHT22;59335;46.652;21.272;2023-07-29T00:56:12;30.01;39.45
71514;DHT22;59335;46.652;21.272;2023-07-29T00:59:15;30.01;39.42
71514;DHT22;59335;46.652;21.272;2023-07-29T01:02:18;30.01;39.47
71514;DHT22;59335;46.652;21.272;2023-07-29T01:05:21;30.01;39.48
71514;DHT22;59335;46.652;21.272;2023-07-29T01:17:55;30.00;39.48
71514;DHT22;59335;46.652;21.272;2023-07-29T01:21:07;30.01;39.49
71514;DHT22;59335;46.652;21.272;2023-07-29T01:24:10;29.99;39.49
71514;DHT22;59335;46.652;21.272;2023-07-29T01:27:13;29.99;39.50
71514;DHT22;59335;46.652;21.272;2023-07-29T01:30:16;30.00;39.52
71514;DHT22;59335;46.652;21.272;2023-07-29T01:33:28;29.97;39.57
71514;DHT22;59335;46.652;21.272;2023-07-29T01:36:33;29.97;39.49
71514;DHT22;59335;46.652;21.272;2023-07-29T01:39:37;29.97;39.55
71514;DHT22;59335;46.652;21.272;2023-07-29T01:42:41;29.97;39.52
71514;DHT22;59335;46.652;21.272;2023-07-29T01:45:44;29.97;39.55
71514;DHT22;59335;46.652;21.272;2023-07-29T01:48:47;29.97;39.52
71514;DHT22;59335;46.652;21.272;2023-07-29T01:51:50;30.00;39.55
71514;DHT22;59335;46.652;21.272;2023-07-29T01:54:53;29.99;39.48
71514;DHT22;59335;46.652;21.272;2023-07-29T01:57:55;29.97;39.51
71514;DHT22;59335;46.652;21.272;2023-07-29T02:00:59;29.96;39.57
71514;DHT22;59335;46.652;21.272;2023-07-29T02:04:01;29.97;39.53
71514;DHT22;59335;46.652;21.272;2023-07-29T02:07:04;29.94;39.58
71514;DHT22;59335;46.652;21.272;2023-07-29T02:10:07;29.94;39.58
71514;DHT22;59335;46.652;21.272;2023-07-29T02:13:11;29.94;39.52
71514;DHT22;59335;46.652;21.272;2023-07-29T02:16:14;29.97;39.54
71514;DHT22;59335;46.652;21.272;2023-07-29T02:19:17;29.96;39.57
71514;DHT22;59335;46.652;21.272;2023-07-29T02:22:20;29.97;39.58
71514;DHT22;59335;46.652;21.272;2023-07-29T02:25:22;29.94;39.55
71514;DHT22;59335;46.652;21.272;2023-07-29T02:28:25;29.94;39.58
71514;DHT22;59335;46.652;21.272;2023-07-29T02:31:28;29.94;39.64
71514;DHT22;59335;46.652;21.272;2023-07-29T02:34:31;29.94;39.58
71514;DHT22;59335;46.652;21.272;2023-07-29T02:37:34;29.94;39.62
71514;DHT22;59335;46.652;21.272;2023-07-29T02:40:37;29.94;39.65
71514;DHT22;59335;46.652;21.272;2023-07-29T02:43:42;29.93;39.63
71514;DHT22;59335;46.652;21.272;2023-07-29T02:46:45;29.94;39.62
71514;DHT22;59335;46.652;21.272;2023-07-29T02:49:47;29.94;39.64
71514;DHT22;59335;46.652;21.272;2023-07-29T02:52:50;29.91;39.59
71514;DHT22;59335;46.652;21.272;2023-07-29T02:55:54;29.94;39.62
71514;DHT22;59335;46.652;21.272;2023-07-29T02:58:57;29.91;39.63
71514;DHT22;59335;46.652;21.272;2023-07-29T03:01:59;29.96;39.61
71514;DHT22;59335;46.652;21.272;2023-07-29T03:05:02;29.91;39.69
71514;DHT22;59335;46.652;21.272;2023-07-29T03:08:06;29.93;39.62
71514;DHT22;59335;46.652;21.272;2023-07-29T03:11:11;29.93;39.63
71514;DHT22;59335;46.652;21.272;2023-07-29T03:14:14;29.94;39.66
71514;DHT22;59335;46.652;21.272;2023-07-29T03:17:17;29.93;39.69
71514;DHT22;59335;46.652;21.272;2023-07-29T03:20:20;29.91;39.66
71514;DHT22;59335;46.652;21.272;2023-07-29T03:23:23;29.93;39.65
71514;DHT22;59335;46.652;21.272;2023-07-29T03:26:25;29.90;39.62
71514;DHT22;59335;46.652;21.272;2023-07-29T03:29:28;29.90;39.69
71514;DHT22;59335;46.652;21.272;2023-07-29T03:32:31;29.91;39.70
71514;DHT22;59335;46.652;21.272;2023-07-29T03:35:33;29.90;39.69
71514;DHT22;59335;46.652;21.272;2023-07-29T03:38:36;29.90;39.70
71514;DHT22;59335;46.652;21.272;2023-07-29T03:41:43;29.90;39.69
71514;DHT22;59335;46.652;21.272;2023-07-29T03:44:46;29.91;39.70
71514;DHT22;59335;46.652;21.272;2023-07-29T03:47:50;29.93;39.70
71514;DHT22;59335;46.652;21.272;2023-07-29T03:50:53;29.93;39.69
71514;DHT22;59335;46.652;21.272;2023-07-29T03:53:56;29.96;39.65
71514;DHT22;59335;46.652;21.272;2023-07-29T03:56:59;29.94;39.69
71514;DHT22;59335;46.652;21.272;2023-07-29T04:00:02;29.93;39.73
71514;DHT22;59335;46.652;21.272;2023-07-29T04:03:16;29.94;39.73
71514;DHT22;59335;46.652;21.272;2023-07-29T04:06:20;29.93;39.72
71514;DHT22;59335;46.652;21.272;2023-07-29T04:09:23;29.94;39.68
71514;DHT22;59335;46.652;21.272;2023-07-29T04:12:25;29.96;39.68
71514;DHT22;59335;46.652;21.272;2023-07-29T04:15:28;29.93;39.63
71514;DHT22;59335;46.652;21.272;2023-07-29T04:18:32;29.96;39.68
71514;DHT22;59335;46.652;21.272;2023-07-29T04:21:35;29.97;39.64
71514;DHT22;59335;46.652;21.272;2023-07-29T04:24:37;29.97;39.64
71514;DHT22;59335;46.652;21.272;2023-07-29T04:27:40;29.96;39.59
71514;DHT22;59335;46.652;21.272;2023-07-29T04:30:43;29.97;39.65
71514;DHT22;59335;46.652;21.272;2023-07-29T04:33:45;29.96;39.68
71514;DHT22;59335;46.652;21.272;2023-07-29T04:36:48;30.01;39.61
71514;DHT22;59335;46.652;21.272;2023-07-29T04:39:51;29.97;39.61
71514;DHT22;59335;46.652;21.272;2023-07-29T04:42:54;30.00;39.59
71514;DHT22;59335;46.652;21.272;2023-07-29T04:45:57;29.99;39.64
71514;DHT22;59335;46.652;21.272;2023-07-29T04:48:59;30.07;39.59
71514;DHT22;59335;46.652;21.272;2023-07-29T04:52:02;30.04;39.62
71514;DHT22;59335;46.652;21.272;2023-07-29T04:55:05;30.03;39.52
71514;DHT22;59335;46.652;21.272;2023-07-29T04:58:07;30.08;39.52
71514;DHT22;59335;46.652;21.272;2023-07-29T05:01:11;30.16;39.35
71514;DHT22;59335;46.652;21.272;2023-07-29T05:04:14;30.20;39.35
71514;DHT22;59335;46.652;21.272;2023-07-29T05:07:16;30.24;39.19
71514;DHT22;59335;46.652;21.272;2023-07-29T05:10:19;30.25;39.22
71514;DHT22;59335;46.652;21.272;2023-07-29T05:13:23;30.25;39.24
71514;DHT22;59335;46.652;21.272;2023-07-29T05:16:26;30.29;39.17
71514;DHT22;59335;46.652;21.272;2023-07-29T05:19:28;30.29;39.11
71514;DHT22;59335;46.652;21.272;2023-07-29T05:22:31;30.34;38.97
71514;DHT22;59335;46.652;21.272;2023-07-29T05:25:34;30.35;38.84
71514;DHT22;59335;46.652;21.272;2023-07-29T05:28:39;30.35;38.70
71514;DHT22;59335;46.652;21.272;2023-07-29T05:31:42;30.35;38.63
71514;DHT22;59335;46.652;21.272;2023-07-29T05:34:45;30.37;38.76
71514;DHT22;59335;46.652;21.272;2023-07-29T05:37:47;30.35;39.01
71514;DHT22;59335;46.652;21.272;2023-07-29T05:40:50;30.37;39.06
71514;DHT22;59335;46.652;21.272;2023-07-29T05:43:53;30.37;39.20
71514;DHT22;59335;46.652;21.272;2023-07-29T05:46:56;30.39;39.27
71514;DHT22;59335;46.652;21.272;2023-07-29T05:49:59;30.41;39.28
71514;DHT22;59335;46.652;21.272;2023-07-29T05:53:04;30.42;39.32
71514;DHT22;59335;46.652;21.272;2023-07-29T05:56:07;30.45;39.24
71514;DHT22;59335;46.652;21.272;2023-07-29T05:59:10;30.47;39.26
71514;DHT22;59335;46.652;21.272;2023-07-29T06:02:13;30.49;39.09
71514;DHT22;59335;46.652;21.272;2023-07-29T06:05:15;30.51;39.12
71514;DHT22;59335;46.652;21.272;2023-07-29T06:08:18;30.52;39.14
71514;DHT22;59335;46.652;21.272;2023-07-29T06:11:21;30.54;39.12
71514;DHT22;59335;46.652;21.272;2023-07-29T06:14:23;30.56;39.10
71514;DHT22;59335;46.652;21.272;2023-07-29T06:17:26;30.58;39.07
71514;DHT22;59335;46.652;21.272;2023-07-29T06:20:29;30.59;39.04
71514;DHT22;59335;46.652;21.272;2023-07-29T06:23:31;30.64;39.05
71514;DHT22;59335;46.652;21.272;2023-07-29T06:26:34;30.62;39.02
71514;DHT22;59335;46.652;21.272;2023-07-29T06:29:37;30.65;39.02
71514;DHT22;59335;46.652;21.272;2023-07-29T06:32:40;30.65;38.98
71514;DHT22;59335;46.652;21.272;2023-07-29T06:35:43;30.71;38.99
71514;DHT22;59335;46.652;21.272;2023-07-29T06:38:45;30.71;38.95
71514;DHT22;59335;46.652;21.272;2023-07-29T06:41:48;30.75;38.94
71514;DHT22;59335;46.652;21.272;2023-07-29T06:44:53;30.75;38.89
71514;DHT22;59335;46.652;21.272;2023-07-29T06:47:55;30.78;38.92
71514;DHT22;59335;46.652;21.272;2023-07-29T06:50:58;30.80;38.89
71514;DHT22;59335;46.652;21.272;2023-07-29T06:54:03;30.83;38.91
71514;DHT22;59335;46.652;21.272;2023-07-29T06:57:06;30.85;38.82
71514;DHT22;59335;46.652;21.272;2023-07-29T07:00:09;30.87;38.83
71514;DHT22;59335;46.652;21.272;2023-07-29T07:03:11;30.89;38.74
71514;DHT22;59335;46.652;21.272;2023-07-29T07:06:14;30.92;38.79
71514;DHT22;59335;46.652;21.272;2023-07-29T07:09:17;30.95;38.73
71514;DHT22;59335;46.652;21.272;2023-07-29T07:12:20;30.96;38.72
71514;DHT22;59335;46.652;21.272;2023-07-29T07:15:23;31.00;38.74
71514;DHT22;59335;46.652;21.272;2023-07-29T07:18:26;30.99;38.68
71514;DHT22;59335;46.652;21.272;2023-07-29T07:21:29;31.00;38.64
71514;DHT22;59335;46.652;21.272;2023-07-29T07:24:31;31.03;38.66
71514;DHT22;59335;46.652;21.272;2023-07-29T07:27:36;31.04;38.61
71514;DHT22;59335;46.652;21.272;2023-07-29T07:30:42;31.07;38.66
71514;DHT22;59335;46.652;21.272;2023-07-29T07:33:44;31.09;38.69
71514;DHT22;59335;46.652;21.272;2023-07-29T07:36:48;31.09;38.65
71514;DHT22;59335;46.652;21.272;2023-07-29T07:39:50;31.10;38.64
71514;DHT22;59335;46.652;21.272;2023-07-29T07:42:53;31.12;38.64
71514;DHT22;59335;46.652;21.272;2023-07-29T07:46:00;31.09;38.65
71514;DHT22;59335;46.652;21.272;2023-07-29T07:49:03;31.12;38.62
71514;DHT22;59335;46.652;21.272;2023-07-29T07:52:07;31.12;38.65
71514;DHT22;59335;46.652;21.272;2023-07-29T07:55:09;31.14;38.65
71514;DHT22;59335;46.652;21.272;2023-07-29T07:58:12;31.14;38.65
71514;DHT22;59335;46.652;21.272;2023-07-29T08:01:15;31.14;38.61
71514;DHT22;59335;46.652;21.272;2023-07-29T08:04:18;31.17;38.65
71514;DHT22;59335;46.652;21.272;2023-07-29T08:07:20;31.17;38.67
71514;DHT22;59335;46.652;21.272;2023-07-29T08:10:23;31.17;38.66
71514;DHT22;59335;46.652;21.272;2023-07-29T08:13:26;31.19;38.63
71514;DHT22;59335;46.652;21.272;2023-07-29T08:16:29;31.17;38.70
71514;DHT22;59335;46.652;21.272;2023-07-29T08:19:32;31.17;38.74
71514;DHT22;59335;46.652;21.272;2023-07-29T08:22:34;31.17;38.74
71514;DHT22;59335;46.652;21.272;2023-07-29T08:25:37;31.17;38.73
71514;DHT22;59335;46.652;21.272;2023-07-29T08:28:40;31.17;38.78
71514;DHT22;59335;46.652;21.272;2023-07-29T08:31:42;31.17;38.76
71514;DHT22;59335;46.652;21.272;2023-07-29T08:34:45;31.16;38.80
71514;DHT22;59335;46.652;21.272;2023-07-29T08:37:48;31.19;38.83
71514;DHT22;59335;46.652;21.272;2023-07-29T08:41:04;31.19;38.80
71514;DHT22;59335;46.652;21.272;2023-07-29T08:44:30;31.17;38.83
71514;DHT22;59335;46.652;21.272;2023-07-29T08:47:33;31.16;38.80
71514;DHT22;59335;46.652;21.272;2023-07-29T08:50:36;31.19;38.85
71514;DHT22;59335;46.652;21.272;2023-07-29T08:53:39;31.20;38.87
71514;DHT22;59335;46.652;21.272;2023-07-29T08:56:43;31.20;38.86
71514;DHT22;59335;46.652;21.272;2023-07-29T08:59:46;31.19;38.83
71514;DHT22;59335;46.652;21.272;2023-07-29T09:02:48;31.20;38.87
71514;DHT22;59335;46.652;21.272;2023-07-29T09:05:52;31.19;38.90
71514;DHT22;59335;46.652;21.272;2023-07-29T09:08:55;31.19;38.96
71514;DHT22;59335;46.652;21.272;2023-07-29T09:12:01;31.17;38.96
71514;DHT22;59335;46.652;21.272;2023-07-29T09:15:04;31.17;38.98
71514;DHT22;59335;46.652;21.272;2023-07-29T09:18:12;31.19;39.00
71514;DHT22;59335;46.652;21.272;2023-07-29T09:21:18;31.17;38.99
71514;DHT22;59335;46.652;21.272;2023-07-29T09:24:25;31.14;39.05
71514;DHT22;59335;46.652;21.272;2023-07-29T09:27:31;31.17;39.07
71514;DHT22;59335;46.652;21.272;2023-07-29T09:30:35;31.13;39.08
71514;DHT22;59335;46.652;21.272;2023-07-29T09:33:37;31.13;39.13
71514;DHT22;59335;46.652;21.272;2023-07-29T09:36:40;31.13;39.13
71514;DHT22;59335;46.652;21.272;2023-07-29T09:39:47;31.13;39.16
71514;DHT22;59335;46.652;21.272;2023-07-29T09:42:51;31.10;39.20
71514;DHT22;59335;46.652;21.272;2023-07-29T09:45:54;31.10;39.25
71514;DHT22;59335;46.652;21.272;2023-07-29T09:48:56;31.10;39.31
71514;DHT22;59335;46.652;21.272;2023-07-29T09:52:00;31.07;39.30
71514;DHT22;59335;46.652;21.272;2023-07-29T09:55:06;31.10;39.31
71514;DHT22;59335;46.652;21.272;2023-07-29T09:58:09;31.06;39.35
71514;DHT22;59335;46.652;21.272;2023-07-29T10:01:12;31.07;39.36
71514;DHT22;59335;46.652;21.272;2023-07-29T10:04:17;31.06;39.36
71514;DHT22;59335;46.652;21.272;2023-07-29T10:07:20;31.04;39.38
71514;DHT22;59335;46.652;21.272;2023-07-29T10:10:22;31.03;39.42
71514;DHT22;59335;46.652;21.272;2023-07-29T10:13:26;31.04;39.43
71514;DHT22;59335;46.652;21.272;2023-07-29T10:16:28;31.04;39.44
71514;DHT22;59335;46.652;21.272;2023-07-29T10:19:31;31.03;39.50
71514;DHT22;59335;46.652;21.272;2023-07-29T10:22:39;31.03;39.47
71514;DHT22;59335;46.652;21.272;2023-07-29T10:25:49;31.00;39.53
71514;DHT22;59335;46.652;21.272;2023-07-29T10:28:54;30.99;39.54
71514;DHT22;59335;46.652;21.272;2023-07-29T10:32:01;30.99;39.57
71514;DHT22;59335;46.652;21.272;2023-07-29T10:35:05;30.99;39.60
71514;DHT22;59335;46.652;21.272;2023-07-29T10:38:09;31.00;39.58
71514;DHT22;59335;46.652;21.272;2023-07-29T10:41:12;30.97;39.64
71514;DHT22;59335;46.652;21.272;2023-07-29T10:47:42;30.96;39.65
71514;DHT22;59335;46.652;21.272;2023-07-29T10:50:45;30.92;39.67
71514;DHT22;59335;46.652;21.272;2023-07-29T10:53:48;30.93;39.69
71514;DHT22;59335;46.652;21.272;2023-07-29T10:56:50;30.93;39.75
71514;DHT22;59335;46.652;21.272;2023-07-29T10:59:54;30.92;39.79
71514;DHT22;59335;46.652;21.272;2023-07-29T11:03:02;30.89;39.79
71514;DHT22;59335;46.652;21.272;2023-07-29T11:06:05;30.90;39.82
71514;DHT22;59335;46.652;21.272;2023-07-29T11:12:51;30.87;39.81
71514;DHT22;59335;46.652;21.272;2023-07-29T11:15:55;30.86;39.82
71514;DHT22;59335;46.652;21.272;2023-07-29T11:18:59;30.86;39.88
71514;DHT22;59335;46.652;21.272;2023-07-29T11:22:02;30.86;39.90
71514;DHT22;59335;46.652;21.272;2023-07-29T11:25:07;30.85;39.92
71514;DHT22;59335;46.652;21.272;2023-07-29T11:28:10;30.85;39.93
71514;DHT22;59335;46.652;21.272;2023-07-29T11:31:13;30.80;39.90
71514;DHT22;59335;46.652;21.272;2023-07-29T11:34:16;30.80;39.93
71514;DHT22;59335;46.652;21.272;2023-07-29T11:37:22;30.85;39.94
71514;DHT22;59335;46.652;21.272;2023-07-29T11:40:25;30.82;39.94
71514;DHT22;59335;46.652;21.272;2023-07-29T11:43:28;30.80;39.97
71514;DHT22;59335;46.652;21.272;2023-07-29T11:46:30;30.80;39.98
71514;DHT22;59335;46.652;21.272;2023-07-29T11:49:34;30.82;39.98
71514;DHT22;59335;46.652;21.272;2023-07-29T11:52:37;30.80;40.05
71514;DHT22;59335;46.652;21.272;2023-07-29T11:55:41;30.80;40.05
71514;DHT22;59335;46.652;21.272;2023-07-29T11:58:44;30.80;40.08
71514;DHT22;59335;46.652;21.272;2023-07-29T12:01:47;30.82;40.07
71514;DHT22;59335;46.652;21.272;2023-07-29T12:04:50;30.82;40.08
71514;DHT22;59335;46.652;21.272;2023-07-29T12:07:53;30.80;40.10
71514;DHT22;59335;46.652;21.272;2023-07-29T12:10:55;30.82;40.09
71514;DHT22;59335;46.652;21.272;2023-07-29T12:14:02;30.80;40.12
71514;DHT22;59335;46.652;21.272;2023-07-29T12:17:06;30.79;40.15
71514;DHT22;59335;46.652;21.272;2023-07-29T12:20:10;30.80;40.15
71514;DHT22;59335;46.652;21.272;2023-07-29T12:23:15;30.79;40.11
71514;DHT22;59335;46.652;21.272;2023-07-29T12:26:18;30.79;40.15
71514;DHT22;59335;46.652;21.272;2023-07-29T12:29:21;30.78;40.18
71514;DHT22;59335;46.652;21.272;2023-07-29T12:32:25;30.76;40.14
71514;DHT22;59335;46.652;21.272;2023-07-29T12:35:37;30.79;40.21
71514;DHT22;59335;46.652;21.272;2023-07-29T12:38:42;30.79;40.18
71514;DHT22;59335;46.652;21.272;2023-07-29T12:41:45;30.76;40.19
71514;DHT22;59335;46.652;21.272;2023-07-29T12:44:48;30.78;40.21
71514;DHT22;59335;46.652;21.272;2023-07-29T12:47:51;30.79;40.22
71514;DHT22;59335;46.652;21.272;2023-07-29T12:50:54;30.78;40.21
71514;DHT22;59335;46.652;21.272;2023-07-29T12:53:56;30.76;40.25
71514;DHT22;59335;46.652;21.272;2023-07-29T12:56:59;30.78;40.28
71514;DHT22;59335;46.652;21.272;2023-07-29T13:00:03;30.78;40.31
71514;DHT22;59335;46.652;21.272;2023-07-29T13:03:06;30.76;40.29
71514;DHT22;59335;46.652;21.272;2023-07-29T13:06:09;30.72;40.27
71514;DHT22;59335;46.652;21.272;2023-07-29T13:09:11;30.75;40.31
71514;DHT22;59335;46.652;21.272;2023-07-29T13:12:14;30.74;40.35
71514;DHT22;59335;46.652;21.272;2023-07-29T13:15:17;30.75;40.32
71514;DHT22;59335;46.652;21.272;2023-07-29T13:18:21;30.74;40.39
71514;DHT22;59335;46.652;21.272;2023-07-29T13:21:23;30.74;40.33
71514;DHT22;59335;46.652;21.272;2023-07-29T13:24:26;30.74;40.39
71514;DHT22;59335;46.652;21.272;2023-07-29T13:27:29;30.74;40.44
71514;DHT22;59335;46.652;21.272;2023-07-29T13:30:31;30.75;40.42
71514;DHT22;59335;46.652;21.272;2023-07-29T13:33:34;30.71;40.45
71514;DHT22;59335;46.652;21.272;2023-07-29T13:36:37;30.72;40.43
71514;DHT22;59335;46.652;21.272;2023-07-29T13:39:40;30.72;40.42
71514;DHT22;59335;46.652;21.272;2023-07-29T13:42:42;30.71;40.44
71514;DHT22;59335;46.652;21.272;2023-07-29T13:45:45;30.71;40.43
71514;DHT22;59335;46.652;21.272;2023-07-29T13:48:50;30.69;40.52
71514;DHT22;59335;46.652;21.272;2023-07-29T13:51:53;30.69;40.49
71514;DHT22;59335;46.652;21.272;2023-07-29T13:54:56;30.69;40.53
71514;DHT22;59335;46.652;21.272;2023-07-29T13:57:58;30.71;40.51
71514;DHT22;59335;46.652;21.272;2023-07-29T14:01:01;30.69;40.50
71514;DHT22;59335;46.652;21.272;2023-07-29T14:04:04;30.71;40.56
71514;DHT22;59335;46.652;21.272;2023-07-29T14:07:06;30.69;40.56
71514;DHT22;59335;46.652;21.272;2023-07-29T14:10:09;30.69;40.54
71514;DHT22;59335;46.652;21.272;2023-07-29T14:13:12;30.71;40.58
71514;DHT22;59335;46.652;21.272;2023-07-29T14:16:15;30.68;40.56
71514;DHT22;59335;46.652;21.272;2023-07-29T14:19:17;30.66;40.54
71514;DHT22;59335;46.652;21.272;2023-07-29T14:22:20;30.68;40.60
71514;DHT22;59335;46.652;21.272;2023-07-29T14:25:22;30.71;40.56
71514;DHT22;59335;46.652;21.272;2023-07-29T14:28:25;30.66;40.57
71514;DHT22;59335;46.652;21.272;2023-07-29T14:31:28;30.66;40.56
71514;DHT22;59335;46.652;21.272;2023-07-29T14:34:31;30.66;40.60
71514;DHT22;59335;46.652;21.272;2023-07-29T14:37:34;30.65;40.67
71514;DHT22;59335;46.652;21.272;2023-07-29T14:40:36;30.66;40.60
71514;DHT22;59335;46.652;21.272;2023-07-29T14:43:39;30.65;40.60
71514;DHT22;59335;46.652;21.272;2023-07-29T14:46:41;30.66;40.66
71514;DHT22;59335;46.652;21.272;2023-07-29T14:49:45;30.66;40.64
71514;DHT22;59335;46.652;21.272;2023-07-29T14:52:47;30.66;40.64
71514;DHT22;59335;46.652;21.272;2023-07-29T14:55:50;30.65;40.65
71514;DHT22;59335;46.652;21.272;2023-07-29T14:58:53;30.66;40.62
71514;DHT22;59335;46.652;21.272;2023-07-29T15:01:56;30.65;40.62
71514;DHT22;59335;46.652;21.272;2023-07-29T15:04:58;30.64;40.64
71514;DHT22;59335;46.652;21.272;2023-07-29T15:08:01;30.66;40.71
71514;DHT22;59335;46.652;21.272;2023-07-29T15:11:03;30.61;40.69
71514;DHT22;59335;46.652;21.272;2023-07-29T15:14:07;30.64;40.65
71514;DHT22;59335;46.652;21.272;2023-07-29T15:17:09;30.62;40.70
71514;DHT22;59335;46.652;21.272;2023-07-29T15:20:12;30.65;40.71
71514;DHT22;59335;46.652;21.272;2023-07-29T15:23:15;30.62;40.67
71514;DHT22;59335;46.652;21.272;2023-07-29T15:26:17;30.65;40.70
71514;DHT22;59335;46.652;21.272;2023-07-29T15:29:20;30.61;40.75
71514;DHT22;59335;46.652;21.272;2023-07-29T15:32:23;30.61;40.71
71514;DHT22;59335;46.652;21.272;2023-07-29T15:35:25;30.62;40.75
71514;DHT22;59335;46.652;21.272;2023-07-29T15:38:28;30.62;40.73
71514;DHT22;59335;46.652;21.272;2023-07-29T15:41:32;30.62;40.78
71514;DHT22;59335;46.652;21.272;2023-07-29T15:44:36;30.59;40.76
71514;DHT22;59335;46.652;21.272;2023-07-29T15:47:39;30.61;40.79
71514;DHT22;59335;46.652;21.272;2023-07-29T15:50:42;30.61;40.77
71514;DHT22;59335;46.652;21.272;2023-07-29T15:53:45;30.61;40.77
71514;DHT22;59335;46.652;21.272;2023-07-29T15:56:47;30.59;40.73
71514;DHT22;59335;46.652;21.272;2023-07-29T15:59:50;30.61;40.83
71514;DHT22;59335;46.652;21.272;2023-07-29T16:02:52;30.61;40.79
71514;DHT22;59335;46.652;21.272;2023-07-29T16:05:55;30.59;40.82
71514;DHT22;59335;46.652;21.272;2023-07-29T16:08:57;30.61;40.83
71514;DHT22;59335;46.652;21.272;2023-07-29T16:12:02;30.58;40.83
71514;DHT22;59335;46.652;21.272;2023-07-29T16:15:07;30.59;40.85
71514;DHT22;59335;46.652;21.272;2023-07-29T16:18:10;30.59;40.83
71514;DHT22;59335;46.652;21.272;2023-07-29T16:21:12;30.55;40.86
71514;DHT22;59335;46.652;21.272;2023-07-29T16:24:15;30.56;40.87
71514;DHT22;59335;46.652;21.272;2023-07-29T16:27:19;30.56;40.90
71514;DHT22;59335;46.652;21.272;2023-07-29T16:30:22;30.56;40.87
71514;DHT22;59335;46.652;21.272;2023-07-29T16:33:25;30.58;40.89
71514;DHT22;59335;46.652;21.272;2023-07-29T16:36:28;30.56;40.90
71514;DHT22;59335;46.652;21.272;2023-07-29T16:39:30;30.58;40.91
71514;DHT22;59335;46.652;21.272;2023-07-29T16:42:33;30.55;40.94
71514;DHT22;59335;46.652;21.272;2023-07-29T16:45:36;30.55;40.95
71514;DHT22;59335;46.652;21.272;2023-07-29T16:48:38;30.55;40.98
71514;DHT22;59335;46.652;21.272;2023-07-29T16:51:42;30.56;40.97
71514;DHT22;59335;46.652;21.272;2023-07-29T16:54:45;30.55;41.01
71514;DHT22;59335;46.652;21.272;2023-07-29T16:57:48;30.55;41.03
71514;DHT22;59335;46.652;21.272;2023-07-29T17:00:50;30.54;41.01
71514;DHT22;59335;46.652;21.272;2023-07-29T17:03:53;30.55;41.05
71514;DHT22;59335;46.652;21.272;2023-07-29T17:06:56;30.55;41.05
71514;DHT22;59335;46.652;21.272;2023-07-29T17:09:58;30.54;41.11
71514;DHT22;59335;46.652;21.272;2023-07-29T17:13:01;30.55;41.05
71514;DHT22;59335;46.652;21.272;2023-07-29T17:16:04;30.54;41.14
71514;DHT22;59335;46.652;21.272;2023-07-29T17:19:06;30.52;41.13
71514;DHT22;59335;46.652;21.272;2023-07-29T17:22:09;30.52;41.09
71514;DHT22;59335;46.652;21.272;2023-07-29T17:25:12;30.51;41.15
71514;DHT22;59335;46.652;21.272;2023-07-29T17:28:14;30.49;41.16
71514;DHT22;59335;46.652;21.272;2023-07-29T17:31:17;30.49;41.16
71514;DHT22;59335;46.652;21.272;2023-07-29T17:34:20;30.51;41.18
71514;DHT22;59335;46.652;21.272;2023-07-29T17:37:24;30.49;41.18
71514;DHT22;59335;46.652;21.272;2023-07-29T17:40:27;30.49;41.18
71514;DHT22;59335;46.652;21.272;2023-07-29T17:43:29;30.49;41.19
71514;DHT22;59335;46.652;21.272;2023-07-29T17:46:32;30.49;41.21
71514;DHT22;59335;46.652;21.272;2023-07-29T17:49:36;30.47;41.23
71514;DHT22;59335;46.652;21.272;2023-07-29T17:52:39;30.47;41.23
71514;DHT22;59335;46.652;21.272;2023-07-29T17:55:41;30.45;41.16
71514;DHT22;59335;46.652;21.272;2023-07-29T17:58:44;30.47;41.22
71514;DHT22;59335;46.652;21.272;2023-07-29T18:01:47;30.48;41.25
71514;DHT22;59335;46.652;21.272;2023-07-29T18:04:51;30.44;41.27
71514;DHT22;59335;46.652;21.272;2023-07-29T18:07:54;30.45;41.26
71514;DHT22;59335;46.652;21.272;2023-07-29T18:10:56;30.45;41.31
71514;DHT22;59335;46.652;21.272;2023-07-29T18:13:59;30.44;41.30
71514;DHT22;59335;46.652;21.272;2023-07-29T18:17:01;30.45;41.33
71514;DHT22;59335;46.652;21.272;2023-07-29T18:20:05;30.47;41.33
71514;DHT22;59335;46.652;21.272;2023-07-29T18:23:08;30.42;41.36
71514;DHT22;59335;46.652;21.272;2023-07-29T18:26:11;30.47;41.39
71514;DHT22;59335;46.652;21.272;2023-07-29T18:29:13;30.42;41.34
71514;DHT22;59335;46.652;21.272;2023-07-29T18:32:16;30.45;41.37
71514;DHT22;59335;46.652;21.272;2023-07-29T18:35:19;30.44;41.36
71514;DHT22;59335;46.652;21.272;2023-07-29T18:38:22;30.39;41.40
71514;DHT22;59335;46.652;21.272;2023-07-29T18:41:25;30.42;41.38
71514;DHT22;59335;46.652;21.272;2023-07-29T18:44:29;30.42;41.41
71514;DHT22;59335;46.652;21.272;2023-07-29T18:47:32;30.41;41.46
71514;DHT22;59335;46.652;21.272;2023-07-29T18:50:35;30.41;41.46
71514;DHT22;59335;46.652;21.272;2023-07-29T18:53:38;30.41;41.49
71514;DHT22;59335;46.652;21.272;2023-07-29T18:56:41;30.41;41.43
71514;DHT22;59335;46.652;21.272;2023-07-29T18:59:44;30.41;41.50
71514;DHT22;59335;46.652;21.272;2023-07-29T19:02:47;30.42;41.53
71514;DHT22;59335;46.652;21.272;2023-07-29T19:05:57;30.39;41.53
71514;DHT22;59335;46.652;21.272;2023-07-29T19:09:02;30.39;41.51
71514;DHT22;59335;46.652;21.272;2023-07-29T19:12:06;30.38;41.54
71514;DHT22;59335;46.652;21.272;2023-07-29T19:15:11;30.38;41.58